Terminal Aerodrome Forecast
Issued by NWS

Home | Current Version | Previous Version | Text Only | Print | Product List | Glossary On
Versions: 1 2 3 4 5 6 7 8 9 10 11 12 13 14 15 16 17
030
FTUS43 KPAH 092128 AAA
TAFCGI
TAF AMD
KCGI 092128Z 0921/1018 31014KT P6SM OVC035
     FM100100 32010KT P6SM BKN035
     FM100500 31010KT P6SM SCT035=

USA.gov is the U.S. government's official web portal to all federal, state and local government web resources and services.